createdAt,value
2019-01-15T00:02:23.114Z,97945.81
2019-01-15T00:05:11.994Z,97954.44
2019-01-15T00:08:00.786Z,97818.66
2019-01-15T00:10:49.598Z,97863.49
2019-01-15T00:13:38.380Z,97964.13
2019-01-15T00:16:27.205Z,97971.10
2019-01-15T00:19:15.995Z,97977.29
2019-01-15T00:22:05.093Z,97971.80
2019-01-15T00:24:34.535Z,97909.16
2019-01-15T00:27:16.455Z,97989.67
2019-01-15T00:30:24.565Z,97743.20
2019-01-15T00:33:13.382Z,97995.71
2019-01-15T00:36:02.169Z,97996.92
2019-01-15T00:38:50.983Z,97994.88
2019-01-15T00:41:39.779Z,97998.45
2019-01-15T00:44:28.585Z,97997.93
2019-01-15T00:47:17.403Z,98005.30
2019-01-15T00:50:27.117Z,98008.35
2019-01-15T00:53:15.929Z,98006.46
2019-01-15T00:56:04.720Z,98014.24
2019-01-15T00:58:53.534Z,98014.66
2019-01-15T01:01:42.362Z,98010.90
2019-01-15T01:04:31.172Z,98017.73
2019-01-15T01:07:19.976Z,97855.30
2019-01-15T01:10:29.730Z,98023.72
2019-01-15T01:13:18.520Z,98027.42
2019-01-15T01:16:07.396Z,97757.83
2019-01-15T01:19:15.277Z,98026.63
2019-01-15T01:22:04.088Z,98022.81
2019-01-15T01:24:52.875Z,97946.41
2019-01-15T01:27:34.450Z,98011.49
2019-01-15T01:30:23.687Z,98017.41
2019-01-15T01:33:12.497Z,98019.78
2019-01-15T01:36:01.298Z,98025.37
2019-01-15T01:38:50.101Z,97949.64
2019-01-15T01:41:38.911Z,98032.92
2019-01-15T01:44:27.711Z,98033.23
2019-01-15T01:47:16.526Z,98033.05
2019-01-15T01:50:27.584Z,98026.20
2019-01-15T01:53:16.740Z,98029.44
2019-01-15T01:56:05.529Z,98031.53
2019-01-15T01:58:54.338Z,98028.80
2019-01-15T02:01:43.141Z,98035.94
2019-01-15T02:04:31.951Z,97787.80
2019-01-15T02:07:20.742Z,98035.73
2019-01-15T02:10:28.900Z,97960.20
2019-01-15T02:13:17.694Z,98048.28
2019-01-15T02:16:06.522Z,98061.36
2019-01-15T02:18:55.319Z,97813.23
2019-01-15T02:21:44.144Z,98057.56
2019-01-15T02:28:01.370Z,98050.14
2019-01-15T02:30:50.165Z,98043.47
2019-01-15T02:33:38.985Z,98048.55
2019-01-15T02:36:27.788Z,97806.38
2019-01-15T02:39:16.617Z,98062.53
2019-01-15T02:42:05.480Z,97874.34
2019-01-15T02:44:54.302Z,98062.16
2019-01-15T02:47:43.124Z,98025.94
2019-01-15T02:50:31.918Z,98045.73
2019-01-15T02:53:20.740Z,97777.01
2019-01-15T02:56:09.577Z,98040.16
2019-01-15T02:58:58.364Z,97998.25
2019-01-15T03:01:47.179Z,98038.22
2019-01-15T03:04:36.058Z,97964.33
2019-01-15T03:07:24.875Z,98040.48
2019-01-15T03:10:34.606Z,97776.09
2019-01-15T03:13:23.432Z,98032.53
2019-01-15T03:16:12.516Z,98041.46
2019-01-15T03:19:01.342Z,97902.38
2019-01-15T03:21:50.160Z,98045.62
2019-01-15T03:24:38.982Z,97812.19
2019-01-15T03:27:27.780Z,98042.19
2019-01-15T03:30:13.796Z,98034.42
2019-01-15T03:33:02.650Z,98035.06
2019-01-15T03:35:51.495Z,98039.02
2019-01-15T03:38:40.295Z,98030.33
2019-01-15T03:41:29.110Z,98031.67
2019-01-15T03:44:17.976Z,97811.53
2019-01-15T03:47:06.818Z,98026.05
2019-01-15T03:49:55.630Z,98025.72
2019-01-15T03:52:44.449Z,98025.83
2019-01-15T03:55:33.236Z,98031.30
2019-01-15T03:58:22.051Z,98031.03
2019-01-15T04:01:10.907Z,98028.38
2019-01-15T04:03:59.727Z,98028.06
2019-01-15T04:06:48.844Z,98023.51
2019-01-15T04:12:47.021Z,98031.47
2019-01-15T04:15:35.885Z,98036.33
2019-01-15T04:18:24.708Z,98037.42
2019-01-15T04:21:13.776Z,98030.50
2019-01-15T04:24:02.579Z,98028.48
2019-01-15T04:26:51.370Z,97929.58
2019-01-15T04:29:40.172Z,98046.98
2019-01-15T04:32:22.092Z,98047.73
2019-01-15T04:37:59.562Z,98049.77
2019-01-15T04:40:48.365Z,98042.30
2019-01-15T04:43:37.250Z,98045.10
2019-01-15T04:46:26.065Z,98037.95
2019-01-15T04:49:14.886Z,97787.92
2019-01-15T04:52:03.785Z,98037.80
2019-01-15T04:54:52.583Z,97787.56
2019-01-15T04:57:41.393Z,98039.71
2019-01-15T05:00:30.269Z,98043.56
2019-01-15T05:03:19.144Z,98042.50
2019-01-15T05:06:08.036Z,98043.65
2019-01-15T05:08:56.837Z,98046.38
2019-01-15T05:11:45.612Z,98041.09
2019-01-15T05:14:34.420Z,98035.16
2019-01-15T05:17:23.208Z,98029.38
2019-01-15T05:20:32.926Z,98020.16
2019-01-15T05:23:21.716Z,98015.92
2019-01-15T05:26:10.523Z,97872.76
2019-01-15T05:28:59.329Z,97871.75
2019-01-15T05:31:48.152Z,97928.87
2019-01-15T05:34:36.953Z,98026.16
2019-01-15T05:37:25.735Z,98020.69
2019-01-15T05:40:35.484Z,98002.92
2019-01-15T05:43:24.282Z,98008.81
2019-01-15T05:46:13.083Z,98002.80
2019-01-15T05:49:01.881Z,97934.94
2019-01-15T05:51:50.714Z,97832.48
2019-01-15T05:54:39.531Z,98002.32
2019-01-15T05:57:28.315Z,98009.48
2019-01-15T06:00:17.677Z,98003.63
2019-01-15T06:03:06.462Z,98004.48
2019-01-15T06:05:55.278Z,97748.23
2019-01-15T06:08:44.083Z,98003.61
2019-01-15T06:11:32.895Z,97807.61
2019-01-15T06:14:21.681Z,98004.84
2019-01-15T06:17:10.511Z,98001.38
2019-01-15T06:19:59.307Z,97997.25
2019-01-15T06:22:48.199Z,97995.02
2019-01-15T06:25:36.985Z,97983.60
2019-01-15T06:31:18.581Z,97976.00
2019-01-15T06:34:07.399Z,97975.61
2019-01-15T06:36:56.200Z,97976.74
2019-01-15T06:39:45.007Z,97991.66
2019-01-15T06:42:33.815Z,97991.55
2019-01-15T06:45:43.512Z,97999.33
2019-01-15T06:48:32.329Z,97993.89
2019-01-15T06:51:21.140Z,97990.50
2019-01-15T06:54:09.945Z,97983.80
2019-01-15T06:56:58.735Z,97981.75
2019-01-15T06:59:47.543Z,97978.63
2019-01-15T07:02:36.332Z,97981.83
2019-01-15T07:05:25.138Z,97960.86
2019-01-15T07:08:13.945Z,97986.45
2019-01-15T07:11:02.763Z,97988.11
2019-01-15T07:13:57.046Z,97991.85
2019-01-15T07:19:41.273Z,97999.52
2019-01-15T07:22:30.053Z,97854.36
2019-01-15T07:25:38.193Z,97990.31
2019-01-15T07:28:26.983Z,97887.61
2019-01-15T07:31:08.544Z,97917.42
2019-01-15T07:33:57.339Z,97991.39
2019-01-15T07:36:46.460Z,97987.77
2019-01-15T07:39:35.261Z,97988.66
2019-01-15T07:42:24.082Z,97990.31
2019-01-15T07:48:28.672Z,97970.88
2019-01-15T07:51:17.467Z,97880.33
2019-01-15T07:54:06.263Z,97979.82
2019-01-15T07:56:55.052Z,97970.65
2019-01-15T07:59:43.941Z,97998.30
2019-01-15T08:02:32.729Z,97994.31
2019-01-15T08:05:42.447Z,97783.61
2019-01-15T08:08:31.219Z,97917.03
2019-01-15T08:11:20.027Z,97995.23
2019-01-15T08:14:12.095Z,97985.65
2019-01-15T08:16:59.416Z,97999.02
2019-01-15T08:19:48.226Z,97990.47
2019-01-15T08:22:37.011Z,97778.23
2019-01-15T08:25:25.843Z,97995.30
2019-01-15T08:28:14.664Z,98002.55
2019-01-15T08:30:56.123Z,98005.45
2019-01-15T08:33:44.919Z,97762.66
2019-01-15T08:36:54.285Z,97988.73
2019-01-15T08:39:43.081Z,97983.36
2019-01-15T08:42:31.885Z,97985.91
2019-01-15T08:45:20.752Z,97991.48
2019-01-15T08:57:00.535Z,97990.31
2019-01-15T08:59:49.324Z,97992.50
2019-01-15T09:02:38.134Z,97765.71
2019-01-15T09:05:26.928Z,97758.86
2019-01-15T09:08:15.740Z,97752.63
2019-01-15T09:11:23.717Z,97999.13
2019-01-15T09:14:12.507Z,97995.52
2019-01-15T09:17:01.327Z,97992.09
2019-01-15T09:19:50.115Z,97793.69
2019-01-15T09:22:38.986Z,97989.19
2019-01-15T09:25:27.777Z,97979.28
2019-01-15T09:28:16.593Z,97905.95
2019-01-15T09:30:58.457Z,97975.27
2019-01-15T09:33:47.242Z,97978.27
2019-01-15T09:36:36.067Z,97975.95
2019-01-15T09:39:24.842Z,97974.52
2019-01-15T09:45:30.351Z,97969.48
2019-01-15T09:51:28.562Z,97759.86
2019-01-15T09:54:17.617Z,97974.84
2019-01-15T09:57:06.423Z,97973.55
2019-01-15T09:59:55.229Z,97738.44
2019-01-15T10:02:44.066Z,97967.30
2019-01-15T10:05:32.834Z,97772.14
2019-01-15T10:08:21.651Z,97964.35
2019-01-15T10:11:10.511Z,97886.83
2019-01-15T10:13:59.337Z,97953.84
2019-01-15T10:16:48.134Z,97956.45
2019-01-15T10:19:36.971Z,97948.38
2019-01-15T10:22:25.841Z,97939.59
2019-01-15T10:25:33.908Z,97936.11
2019-01-15T10:28:22.771Z,97936.17
2019-01-15T10:31:06.227Z,97930.70
2019-01-15T10:34:15.926Z,97933.72
2019-01-15T10:37:03.762Z,97929.03
2019-01-15T10:39:52.544Z,97928.15
2019-01-15T10:42:41.375Z,97674.89
2019-01-15T10:45:30.256Z,97769.31
2019-01-15T10:48:19.069Z,97935.74
2019-01-15T10:51:07.856Z,97928.56
2019-01-15T10:53:56.663Z,97923.05
2019-01-15T10:56:45.469Z,97921.39
2019-01-15T10:59:34.284Z,97913.70
2019-01-15T11:02:23.112Z,97915.78
2019-01-15T11:05:12.527Z,97908.19
2019-01-15T11:08:01.330Z,97908.20
2019-01-15T11:10:50.122Z,97903.05
2019-01-15T11:13:38.918Z,97884.80
2019-01-15T11:16:27.712Z,97894.16
2019-01-15T11:19:16.530Z,97901.42
2019-01-15T11:22:05.338Z,97775.47
2019-01-15T11:24:54.206Z,97898.49
2019-01-15T11:27:43.010Z,97669.61
2019-01-15T11:30:31.809Z,97673.88
2019-01-15T11:33:13.430Z,97892.95
2019-01-15T11:36:02.214Z,97746.55
2019-01-15T11:38:51.013Z,97887.83
2019-01-15T11:41:39.870Z,97886.96
2019-01-15T11:44:28.746Z,97636.84
2019-01-15T11:47:17.534Z,97641.54
2019-01-15T11:50:27.264Z,97895.50
2019-01-15T11:53:16.042Z,97884.85
2019-01-15T11:56:05.042Z,97883.13
2019-01-15T12:05:18.259Z,97879.73
2019-01-15T12:08:26.147Z,97886.55
2019-01-15T12:11:33.989Z,97882.74
2019-01-15T12:14:41.853Z,97875.92
2019-01-15T12:17:49.673Z,97868.23
2019-01-15T12:26:35.078Z,97840.17
2019-01-15T12:29:42.910Z,97840.62
2019-01-15T12:32:26.296Z,97602.45
2019-01-15T12:35:34.307Z,97835.02
2019-01-15T12:38:42.191Z,97816.28
2019-01-15T12:41:50.141Z,97819.31
2019-01-15T12:44:58.010Z,97701.05
2019-01-15T12:48:05.832Z,97831.61
2019-01-15T12:51:13.653Z,97822.64
2019-01-15T12:54:21.497Z,97681.10
2019-01-15T12:57:29.386Z,97836.75
2019-01-15T13:00:37.288Z,97826.52
2019-01-15T13:03:45.107Z,97822.59
2019-01-15T13:06:52.958Z,97824.79
2019-01-15T13:09:41.524Z,97817.09
2019-01-15T13:12:30.768Z,97818.77
2019-01-15T13:15:38.636Z,97816.27
2019-01-15T13:18:46.456Z,97816.64
2019-01-15T13:21:54.537Z,97814.43
2019-01-15T13:24:44.982Z,97564.63
2019-01-15T13:27:52.812Z,97665.75
2019-01-15T13:31:00.694Z,97808.02
2019-01-15T13:33:45.139Z,97799.43
2019-01-15T13:40:02.429Z,97790.86
2019-01-15T13:42:50.991Z,97798.25
2019-01-15T13:45:41.921Z,97796.52
2019-01-15T13:48:31.807Z,97799.48
2019-01-15T13:51:39.626Z,97789.64
2019-01-15T13:57:24.058Z,97802.08
2019-01-15T14:00:52.805Z,97801.61
2019-01-15T14:04:00.627Z,97796.94
2019-01-15T14:10:04.154Z,97785.98
2019-01-15T14:13:11.999Z,97761.80
2019-01-15T14:16:19.818Z,97565.45
2019-01-15T14:19:27.713Z,97782.53
2019-01-15T14:25:44.927Z,97777.91
2019-01-15T14:28:33.410Z,97727.45
2019-01-15T14:34:33.513Z,97782.16
2019-01-15T14:37:41.337Z,97771.94
2019-01-15T14:40:49.176Z,97772.33
2019-01-15T14:43:57.022Z,97560.77
2019-01-15T14:47:04.858Z,97774.78
2019-01-15T14:50:12.675Z,97775.35
2019-01-15T14:56:19.802Z,97777.69
2019-01-15T14:59:27.615Z,97778.22
2019-01-15T15:02:37.071Z,97767.17
2019-01-15T15:05:44.898Z,97770.16
2019-01-15T15:08:52.725Z,97675.06
2019-01-15T15:15:09.976Z,97770.67
2019-01-15T15:21:27.197Z,97771.90
2019-01-15T15:24:15.928Z,97531.53
2019-01-15T15:27:24.030Z,97776.62
2019-01-15T15:30:52.785Z,97633.81
2019-01-15T15:37:09.935Z,97768.52
2019-01-15T15:40:17.862Z,97515.83
2019-01-15T15:43:25.776Z,97760.94
2019-01-15T15:46:33.610Z,97769.50
2019-01-15T15:49:41.453Z,97766.02
2019-01-15T15:52:49.282Z,97762.20
2019-01-15T15:55:57.168Z,97759.19
2019-01-15T16:02:14.347Z,97761.80
2019-01-15T16:05:22.176Z,97624.98
2019-01-15T16:08:29.994Z,97523.92
2019-01-15T16:11:37.846Z,97763.08
2019-01-15T16:14:28.272Z,97551.48
2019-01-15T16:17:36.107Z,97770.71
2019-01-15T16:20:26.538Z,97774.19
2019-01-15T16:23:34.371Z,97777.55
2019-01-15T16:26:42.273Z,97777.95
2019-01-15T16:29:50.104Z,97780.95
2019-01-15T16:32:57.919Z,97781.81
2019-01-15T16:35:58.732Z,97783.56
2019-01-15T16:39:06.546Z,97777.60
2019-01-15T16:48:09.672Z,97780.58
2019-01-15T16:57:22.622Z,97782.70
2019-01-15T17:00:51.345Z,97550.67
2019-01-15T17:03:59.170Z,97533.70
2019-01-15T17:07:07.016Z,97778.48
2019-01-15T17:10:14.849Z,97775.03
2019-01-15T17:13:22.661Z,97778.02
2019-01-15T17:16:33.845Z,97777.60
2019-01-15T17:19:40.049Z,97770.81
2019-01-15T17:25:43.531Z,97773.38
2019-01-15T17:28:51.341Z,97784.00
2019-01-15T17:31:59.196Z,97779.73
2019-01-15T17:34:42.146Z,97780.59
2019-01-15T17:43:55.220Z,97777.60
2019-01-15T17:47:03.068Z,97528.59
2019-01-15T17:50:10.914Z,97770.78
2019-01-15T17:53:18.772Z,97693.83
2019-01-15T17:56:26.638Z,97558.30
2019-01-15T17:59:34.463Z,97770.82
2019-01-15T18:02:42.304Z,97735.94
2019-01-15T18:05:50.122Z,97771.66
2019-01-15T18:11:53.716Z,97770.33
2019-01-15T18:15:01.830Z,97766.51
2019-01-15T18:18:09.643Z,97764.42
2019-01-15T18:21:17.466Z,97761.45
2019-01-15T18:24:25.347Z,97761.84
2019-01-15T18:27:33.365Z,97755.52
2019-01-15T18:30:41.417Z,97755.05
2019-01-15T18:33:49.504Z,97781.03
2019-01-15T18:43:01.820Z,97733.80
2019-01-15T18:46:09.987Z,97507.34
2019-01-15T18:49:18.134Z,97750.77
2019-01-15T18:55:35.973Z,97749.53
2019-01-15T18:58:44.326Z,97749.87
2019-01-15T19:08:02.996Z,97755.39
2019-01-15T19:11:11.330Z,97740.55
2019-01-15T19:14:19.651Z,97742.20
2019-01-15T19:17:03.691Z,97540.03
2019-01-15T19:29:19.682Z,97598.14
2019-01-15T19:32:22.380Z,97738.75
2019-01-15T19:42:02.177Z,97521.78
2019-01-15T19:48:20.805Z,97500.48
2019-01-15T19:54:39.334Z,97745.10
2019-01-15T20:00:59.403Z,97752.83
2019-01-15T20:04:08.233Z,97747.17
2019-01-15T20:07:17.035Z,97483.14
2019-01-15T20:10:46.274Z,97755.84
2019-01-15T20:17:18.042Z,97752.78
2019-01-15T20:20:40.465Z,97755.88
2019-01-15T20:24:08.442Z,97593.95
2019-01-15T20:27:17.406Z,97763.45
2019-01-15T20:30:46.726Z,97761.76
2019-01-15T20:33:48.240Z,97759.24
2019-01-15T20:37:16.544Z,97769.00
2019-01-15T20:40:46.005Z,97756.25
2019-01-15T20:43:56.340Z,97754.59
2019-01-15T20:47:05.210Z,97758.42
2019-01-15T20:50:15.567Z,97761.38
2019-01-15T20:53:25.789Z,97762.25
2019-01-15T21:03:18.768Z,97762.66
2019-01-15T21:06:46.720Z,97663.23
2019-01-15T21:10:06.980Z,97756.67
2019-01-15T21:12:59.045Z,97685.71
2019-01-15T21:16:07.785Z,97767.33
2019-01-15T21:19:16.350Z,97767.80
2019-01-15T21:22:24.983Z,97771.14
2019-01-15T21:25:33.309Z,97573.16
2019-01-15T21:28:41.714Z,97768.63
2019-01-15T21:34:42.407Z,97558.30
2019-01-15T21:46:54.806Z,97766.06
2019-01-15T21:53:12.153Z,97769.08
2019-01-15T21:56:19.975Z,97769.05
2019-01-15T21:59:27.845Z,97767.78
2019-01-15T22:05:45.049Z,97771.14
2019-01-15T22:08:52.867Z,97773.22
2019-01-15T22:12:00.701Z,97552.70
2019-01-15T22:14:46.541Z,97757.53
2019-01-15T22:21:03.801Z,97757.56
2019-01-15T22:24:11.590Z,97753.28
2019-01-15T22:27:19.427Z,97750.66
2019-01-15T22:30:48.159Z,97514.49
2019-01-15T22:36:51.707Z,97743.02
2019-01-15T22:39:59.598Z,97487.79
2019-01-15T22:43:07.403Z,97731.63
2019-01-15T22:46:15.240Z,97727.31
2019-01-15T22:55:31.404Z,97718.42
2019-01-15T22:58:39.231Z,97722.30
2019-01-15T23:05:07.010Z,97716.29
2019-01-15T23:11:13.838Z,97712.92
2019-01-15T23:17:23.558Z,97708.63
2019-01-15T23:20:31.390Z,97704.73
2019-01-15T23:23:39.238Z,97706.95
2019-01-15T23:26:47.057Z,97699.21
2019-01-15T23:29:54.885Z,97697.43
2019-01-15T23:33:02.714Z,97706.47
2019-01-15T23:36:10.795Z,97705.56
2019-01-15T23:39:18.605Z,97701.34
2019-01-15T23:42:26.433Z,97700.97
2019-01-15T23:48:33.184Z,97703.03
2019-01-15T23:51:41.013Z,97641.89
2019-01-15T23:57:58.225Z,97693.61
